createdAt,value
2022-10-31T00:01:24.949Z,101053.44
2022-10-31T00:03:51.653Z,100999.97
2022-10-31T00:06:21.201Z,101050.06
2022-10-31T00:08:48.841Z,101038.84
2022-10-31T00:11:15.453Z,101048.59
2022-10-31T00:13:42.079Z,101056.13
2022-10-31T00:16:18.200Z,101038.81
2022-10-31T00:18:48.588Z,101060.75
2022-10-31T00:21:15.653Z,101049.91
2022-10-31T00:23:42.294Z,101045.47
2022-10-31T00:26:09.077Z,101043.13
2022-10-31T00:28:35.757Z,101048.31
2022-10-31T00:31:04.598Z,101005.16
2022-10-31T00:33:31.253Z,101009.88
2022-10-31T00:35:57.950Z,101018.09
2022-10-31T00:38:24.677Z,101031.25
2022-10-31T00:40:51.271Z,101039.41
2022-10-31T00:43:17.882Z,101013.78
2022-10-31T00:45:44.681Z,101040.22
2022-10-31T00:48:11.823Z,101031.56
2022-10-31T00:50:39.289Z,101041.28
2022-10-31T00:53:06.435Z,101036.56
2022-10-31T00:55:33.066Z,101043.47
2022-10-31T00:58:00.098Z,101031.50
2022-10-31T01:00:27.325Z,101004.03
2022-10-31T01:02:53.931Z,101027.50
2022-10-31T01:05:21.265Z,101053.25
2022-10-31T01:07:48.202Z,101043.94
2022-10-31T01:10:14.943Z,101033.38
2022-10-31T01:12:47.696Z,101039.19
2022-10-31T01:15:17.723Z,101052.56
2022-10-31T01:17:44.378Z,101013.44
2022-10-31T01:20:13.204Z,101048.66
2022-10-31T01:22:39.864Z,101037.03
2022-10-31T01:25:07.695Z,101036.94
2022-10-31T01:27:34.266Z,101046.09
2022-10-31T01:30:00.985Z,101046.91
2022-10-31T01:32:29.829Z,101047.91
2022-10-31T01:34:56.441Z,101060.31
2022-10-31T01:37:23.037Z,101055.09
2022-10-31T01:39:50.153Z,101041.66
2022-10-31T01:42:20.346Z,101029.56
2022-10-31T01:44:57.702Z,101044.53
2022-10-31T01:47:39.434Z,101039.75
2022-10-31T01:50:13.430Z,101046.16
2022-10-31T01:52:50.525Z,101043.34
2022-10-31T01:55:29.141Z,101019.75
2022-10-31T01:58:04.993Z,101016.47
2022-10-31T02:00:31.816Z,101003.81
2022-10-31T02:03:00.508Z,101040.38
2022-10-31T02:05:31.232Z,101007.72
2022-10-31T02:08:16.469Z,101033.63
2022-10-31T02:10:44.901Z,100999.16
2022-10-31T02:13:13.894Z,101018.13
2022-10-31T02:15:43.923Z,101013.94
2022-10-31T02:18:10.784Z,100995.94
2022-10-31T02:20:52.210Z,101004.44
2022-10-31T02:23:37.054Z,101026.06
2022-10-31T02:26:18.834Z,101027.50
2022-10-31T02:29:15.182Z,101010.34
2022-10-31T02:31:57.978Z,101021.00
2022-10-31T02:34:45.631Z,101027.00
2022-10-31T02:37:14.657Z,101021.72
2022-10-31T02:39:54.685Z,101031.31
2022-10-31T02:42:50.237Z,101032.19
2022-10-31T02:45:19.925Z,101037.50
2022-10-31T02:47:50.061Z,101020.16
2022-10-31T02:50:20.209Z,101044.56
2022-10-31T02:52:52.330Z,101034.91
2022-10-31T02:55:27.942Z,101027.91
2022-10-31T02:58:00.288Z,101028.06
2022-10-31T03:00:27.165Z,101010.78
2022-10-31T03:02:56.619Z,101034.25
2022-10-31T03:05:41.497Z,101030.69
2022-10-31T03:08:42.718Z,101041.31
2022-10-31T03:11:10.797Z,101039.59
2022-10-31T03:13:47.966Z,101031.03
2022-10-31T03:16:59.101Z,101031.72
2022-10-31T03:19:34.086Z,101025.91
2022-10-31T03:22:26.801Z,101019.69
2022-10-31T03:24:55.492Z,101047.63
2022-10-31T03:27:27.376Z,100991.38
2022-10-31T03:29:57.357Z,101022.25
2022-10-31T03:32:32.705Z,101019.00
2022-10-31T03:35:04.025Z,101018.13
2022-10-31T03:37:33.769Z,101037.97
2022-10-31T03:40:03.003Z,101020.03
2022-10-31T03:42:34.437Z,101013.78
2022-10-31T03:45:03.937Z,101035.41
2022-10-31T03:47:30.782Z,101011.25
2022-10-31T03:49:58.113Z,101012.31
2022-10-31T03:52:36.867Z,101011.31
2022-10-31T03:55:29.417Z,101031.09
2022-10-31T03:58:05.081Z,101017.31
2022-10-31T04:00:34.974Z,101021.63
2022-10-31T04:03:15.488Z,101023.34
2022-10-31T04:05:46.913Z,100998.81
2022-10-31T04:08:21.281Z,101021.56
2022-10-31T04:10:50.818Z,101040.59
2022-10-31T04:13:24.011Z,101028.34
2022-10-31T04:15:55.093Z,101034.34
2022-10-31T04:18:24.065Z,101007.59
2022-10-31T04:21:00.132Z,101015.41
2022-10-31T04:23:27.472Z,101027.56
2022-10-31T04:25:54.110Z,101016.50
2022-10-31T04:28:20.777Z,101031.91
2022-10-31T04:30:47.375Z,101010.41
2022-10-31T04:33:14.025Z,101038.16
2022-10-31T04:35:41.091Z,101021.78
2022-10-31T04:38:07.837Z,101026.00
2022-10-31T04:40:34.418Z,101036.44
2022-10-31T04:43:01.177Z,101003.00
2022-10-31T04:45:27.989Z,101049.09
2022-10-31T04:47:54.560Z,101029.94
2022-10-31T04:50:22.277Z,101043.06
2022-10-31T04:52:48.838Z,101040.56
2022-10-31T04:55:15.922Z,101053.50
2022-10-31T04:57:46.504Z,101053.63
2022-10-31T05:00:15.342Z,101033.72
2022-10-31T05:02:48.299Z,101063.16
2022-10-31T05:05:16.520Z,101068.44
2022-10-31T05:07:45.161Z,101062.34
2022-10-31T05:10:14.595Z,101074.59
2022-10-31T05:12:56.136Z,101073.41
2022-10-31T05:15:25.357Z,101065.09
2022-10-31T05:17:52.901Z,101075.94
2022-10-31T05:20:21.877Z,101079.97
2022-10-31T05:22:51.073Z,101069.75
2022-10-31T05:25:19.272Z,101069.16
2022-10-31T05:27:48.494Z,101077.81
2022-10-31T05:30:18.419Z,101044.97
2022-10-31T05:32:45.833Z,101079.31
2022-10-31T05:35:16.102Z,101079.50
2022-10-31T05:37:43.302Z,101077.03
2022-10-31T05:40:15.616Z,101066.66
2022-10-31T05:42:43.970Z,101073.66
2022-10-31T05:45:14.836Z,101091.00
2022-10-31T05:47:41.472Z,101089.22
2022-10-31T05:50:09.593Z,101085.84
2022-10-31T05:52:36.503Z,101095.28
2022-10-31T05:55:03.673Z,101090.09
2022-10-31T05:57:30.658Z,101093.56
2022-10-31T05:59:57.349Z,101093.56
2022-10-31T06:02:24.053Z,101078.03
2022-10-31T06:04:50.801Z,101078.88
2022-10-31T06:07:17.525Z,101083.97
2022-10-31T06:09:44.194Z,101077.19
2022-10-31T06:12:10.830Z,101090.78
2022-10-31T06:14:37.420Z,101081.47
2022-10-31T06:17:04.028Z,101083.34
2022-10-31T06:19:30.702Z,101104.00
2022-10-31T06:21:57.373Z,101108.31
2022-10-31T06:24:23.950Z,101072.91
2022-10-31T06:26:50.525Z,101109.97
2022-10-31T06:29:17.218Z,101104.88
2022-10-31T06:31:43.813Z,101094.75
2022-10-31T06:34:10.469Z,101088.72
2022-10-31T06:36:37.083Z,101105.13
2022-10-31T06:39:03.820Z,101113.59
2022-10-31T06:41:30.450Z,101090.34
2022-10-31T06:43:57.097Z,101123.19
2022-10-31T06:46:23.769Z,101107.84
2022-10-31T06:48:50.667Z,101116.38
2022-10-31T06:51:17.462Z,101121.53
2022-10-31T06:53:44.124Z,101124.41
2022-10-31T06:56:10.760Z,101114.66
2022-10-31T06:58:37.377Z,101087.81
2022-10-31T07:01:04.152Z,101118.13
2022-10-31T07:03:30.977Z,101107.94
2022-10-31T07:05:58.021Z,101106.56
2022-10-31T07:08:24.886Z,101117.22
2022-10-31T07:10:53.998Z,101110.16
2022-10-31T07:13:25.919Z,101116.00
2022-10-31T07:16:03.656Z,101138.47
2022-10-31T07:18:30.502Z,101125.31
2022-10-31T07:20:57.255Z,101148.41
2022-10-31T07:23:23.883Z,101149.66
2022-10-31T07:25:56.302Z,101129.66
2022-10-31T07:28:23.487Z,101129.34
2022-10-31T07:30:54.735Z,101139.38
2022-10-31T07:33:21.969Z,101115.94
2022-10-31T07:35:48.875Z,101124.41
2022-10-31T07:38:16.501Z,101132.31
2022-10-31T07:40:43.894Z,101148.75
2022-10-31T07:43:14.449Z,101128.06
2022-10-31T07:45:42.173Z,101148.63
2022-10-31T07:48:08.826Z,101145.94
2022-10-31T07:50:35.612Z,101150.59
2022-10-31T07:53:07.413Z,101142.88
2022-10-31T07:55:35.069Z,101124.63
2022-10-31T07:58:10.345Z,101141.84
2022-10-31T08:00:38.472Z,101148.63
2022-10-31T08:03:08.554Z,101154.97
2022-10-31T08:05:36.178Z,101150.66
2022-10-31T08:08:04.496Z,101154.72
2022-10-31T08:10:31.892Z,101159.44
2022-10-31T08:13:04.044Z,101157.53
2022-10-31T08:15:31.121Z,101148.13
2022-10-31T08:17:58.904Z,101141.69
2022-10-31T08:20:25.810Z,101127.25
2022-10-31T08:23:03.890Z,101150.03
2022-10-31T08:25:35.633Z,101146.69
2022-10-31T08:28:06.050Z,101131.41
2022-10-31T08:30:35.468Z,101090.16
2022-10-31T08:33:09.481Z,101082.59
2022-10-31T08:35:36.316Z,101108.00
2022-10-31T08:38:03.932Z,101127.53
2022-10-31T08:40:32.233Z,101117.78
2022-10-31T08:43:12.547Z,101132.66
2022-10-31T08:45:39.199Z,101089.31
2022-10-31T08:48:08.222Z,101130.25
2022-10-31T08:50:36.551Z,101131.78
2022-10-31T08:53:15.489Z,101127.59
2022-10-31T08:55:43.451Z,101125.81
2022-10-31T08:58:15.524Z,101122.31
2022-10-31T09:00:43.262Z,101133.50
2022-10-31T09:03:22.511Z,101135.63
2022-10-31T09:05:49.435Z,101122.16
2022-10-31T09:08:17.384Z,101137.56
2022-10-31T09:10:47.171Z,101116.19
2022-10-31T09:13:17.076Z,101136.06
2022-10-31T09:15:44.784Z,101142.06
2022-10-31T09:18:12.477Z,101137.84
2022-10-31T09:20:40.709Z,101142.59
2022-10-31T09:23:16.227Z,101113.06
2022-10-31T09:25:49.129Z,101136.75
2022-10-31T09:28:19.022Z,101110.13
2022-10-31T09:30:48.502Z,101116.66
2022-10-31T09:33:15.484Z,101124.59
2022-10-31T09:35:42.831Z,101119.22
2022-10-31T09:38:21.661Z,101118.63
2022-10-31T09:41:07.585Z,101120.06
2022-10-31T09:43:52.617Z,101120.34
2022-10-31T09:46:46.030Z,101101.69
2022-10-31T09:49:34.058Z,101117.00
2022-10-31T09:52:03.620Z,101110.72
2022-10-31T09:54:43.781Z,101115.63
2022-10-31T09:57:15.226Z,101110.56
2022-10-31T09:59:44.470Z,101086.06
2022-10-31T10:02:40.525Z,101112.03
2022-10-31T10:05:12.797Z,101094.84
2022-10-31T10:07:52.855Z,101122.59
2022-10-31T10:10:33.531Z,101102.03
2022-10-31T10:13:24.586Z,101121.59
2022-10-31T10:16:34.342Z,101122.41
2022-10-31T10:19:22.924Z,101113.28
2022-10-31T10:22:23.564Z,101112.44
2022-10-31T10:25:01.728Z,101098.91
2022-10-31T10:28:02.465Z,101100.47
2022-10-31T10:30:41.658Z,101098.66
2022-10-31T10:33:43.811Z,101099.00
2022-10-31T10:36:19.666Z,101087.63
2022-10-31T10:38:55.333Z,101104.91
2022-10-31T10:41:29.401Z,101103.56
2022-10-31T10:44:02.522Z,101117.03
2022-10-31T10:47:07.853Z,101118.47
2022-10-31T10:49:50.815Z,101100.78
2022-10-31T10:52:42.134Z,101092.00
2022-10-31T10:55:21.097Z,101100.84
2022-10-31T10:57:56.425Z,101097.59
2022-10-31T11:00:24.796Z,101076.38
2022-10-31T11:02:51.990Z,101046.63
2022-10-31T11:05:49.365Z,101067.47
2022-10-31T11:08:30.907Z,101063.59
2022-10-31T11:11:26.414Z,101062.91
2022-10-31T11:14:00.652Z,101044.75
2022-10-31T11:16:27.188Z,101057.72
2022-10-31T11:18:55.073Z,101043.50
2022-10-31T11:21:28.205Z,101052.91
2022-10-31T11:24:09.811Z,101049.91
2022-10-31T11:26:40.544Z,101045.50
2022-10-31T11:29:15.831Z,101038.88
2022-10-31T11:31:45.666Z,101062.91
2022-10-31T11:34:31.916Z,101054.28
2022-10-31T11:37:24.034Z,101056.03
2022-10-31T11:40:02.952Z,101037.63
2022-10-31T11:42:37.250Z,101057.84
2022-10-31T11:45:15.265Z,101043.06
2022-10-31T11:47:49.930Z,101051.97
2022-10-31T11:50:24.176Z,101063.03
2022-10-31T11:52:52.237Z,101042.44
2022-10-31T11:55:36.136Z,101061.13
2022-10-31T11:58:04.269Z,101055.63
2022-10-31T12:00:38.364Z,101062.63
2022-10-31T12:03:13.816Z,101063.88
2022-10-31T12:05:42.532Z,101038.94
2022-10-31T12:08:14.447Z,101011.69
2022-10-31T12:10:53.253Z,101059.84
2022-10-31T12:13:32.552Z,101049.13
2022-10-31T12:16:09.161Z,101053.53
2022-10-31T12:18:48.499Z,101028.03
2022-10-31T12:21:23.251Z,101030.28
2022-10-31T12:23:49.796Z,101040.66
2022-10-31T12:26:24.070Z,101032.09
2022-10-31T12:29:30.073Z,101021.19
2022-10-31T12:32:36.854Z,101018.66
2022-10-31T12:35:18.754Z,101015.38
2022-10-31T12:37:53.074Z,101019.66
2022-10-31T12:40:44.865Z,101024.25
2022-10-31T12:43:14.342Z,101020.50
2022-10-31T12:45:52.711Z,101028.66
2022-10-31T12:48:41.963Z,101033.47
2022-10-31T12:51:42.878Z,101031.13
2022-10-31T12:54:28.105Z,101028.34
2022-10-31T12:57:28.489Z,101009.13
2022-10-31T13:00:04.370Z,101010.97
2022-10-31T13:02:36.798Z,101000.44
2022-10-31T13:05:12.179Z,101016.34
2022-10-31T13:07:54.621Z,101017.78
2022-10-31T13:10:27.688Z,101006.44
2022-10-31T13:12:58.463Z,101017.00
2022-10-31T13:15:32.353Z,100995.81
2022-10-31T13:18:03.108Z,101001.00
2022-10-31T13:20:34.154Z,100996.56
2022-10-31T13:23:36.623Z,101011.75
2022-10-31T13:26:10.471Z,101018.06
2022-10-31T13:31:15.396Z,101017.56
2022-10-31T13:33:52.834Z,101021.53
2022-10-31T13:36:25.403Z,101021.22
2022-10-31T13:38:55.000Z,101013.47
2022-10-31T13:41:27.653Z,101015.88
2022-10-31T13:44:02.575Z,101027.75
2022-10-31T13:46:32.220Z,101021.59
2022-10-31T13:48:58.927Z,101000.50
2022-10-31T13:51:31.502Z,101030.94
2022-10-31T13:54:08.399Z,101035.97
2022-10-31T13:56:36.523Z,101017.44
2022-10-31T13:59:12.055Z,101026.28
2022-10-31T14:01:48.650Z,101036.06
2022-10-31T14:04:24.731Z,101033.16
2022-10-31T14:07:07.153Z,101015.38
2022-10-31T14:09:53.270Z,101028.44
2022-10-31T14:12:32.032Z,101036.16
2022-10-31T14:15:23.576Z,101031.81
2022-10-31T14:17:55.777Z,101016.03
2022-10-31T14:20:34.959Z,101024.78
2022-10-31T14:23:31.046Z,101020.78
2022-10-31T14:26:27.402Z,101030.13
2022-10-31T14:28:57.214Z,100986.09
2022-10-31T14:31:36.764Z,101025.91
2022-10-31T14:34:21.332Z,101042.16
2022-10-31T14:37:06.111Z,101033.97
2022-10-31T14:39:42.704Z,101040.22
2022-10-31T14:42:54.550Z,101010.88
2022-10-31T14:45:40.053Z,101038.34
2022-10-31T14:48:15.786Z,101041.03
2022-10-31T14:50:54.099Z,101017.16
2022-10-31T14:53:26.401Z,101029.31
2022-10-31T14:55:55.586Z,101038.59
2022-10-31T15:01:03.317Z,101010.66
2022-10-31T15:04:10.483Z,101029.75
2022-10-31T15:06:44.038Z,100965.41
2022-10-31T15:09:25.484Z,100991.91
2022-10-31T15:11:52.488Z,100987.72
2022-10-31T15:14:45.517Z,101011.28
2022-10-31T15:17:13.324Z,100990.66
2022-10-31T15:19:40.189Z,101014.78
2022-10-31T15:22:10.485Z,100980.31
2022-10-31T15:24:39.907Z,101014.63
2022-10-31T15:27:13.766Z,100989.59
2022-10-31T15:29:52.422Z,101012.25
2022-10-31T15:32:21.453Z,101027.31
2022-10-31T15:34:48.070Z,101014.22
2022-10-31T15:37:20.440Z,101022.09
2022-10-31T15:39:48.472Z,101023.03
2022-10-31T15:42:41.717Z,101029.44
2022-10-31T15:45:14.500Z,101028.25
2022-10-31T15:47:54.693Z,101013.66
2022-10-31T15:50:38.712Z,101024.16
2022-10-31T15:53:36.026Z,101007.88
2022-10-31T15:56:07.199Z,101027.72
2022-10-31T15:58:51.449Z,101011.47
2022-10-31T16:01:34.400Z,101026.91
2022-10-31T16:04:13.058Z,101023.84
2022-10-31T16:06:39.949Z,101001.28
2022-10-31T16:09:23.118Z,101029.31
2022-10-31T16:11:49.957Z,101043.91
2022-10-31T16:14:25.269Z,101017.84
2022-10-31T16:16:56.587Z,101021.06
2022-10-31T16:19:23.142Z,101021.78
2022-10-31T16:21:53.472Z,101013.88
2022-10-31T16:24:32.890Z,100992.91
2022-10-31T16:27:10.246Z,101005.38
2022-10-31T16:29:44.862Z,101053.59
2022-10-31T16:32:54.919Z,101036.22
2022-10-31T16:35:40.454Z,101028.88
2022-10-31T16:38:10.432Z,101046.56
2022-10-31T16:40:39.093Z,101050.34
2022-10-31T16:43:06.150Z,101047.97
2022-10-31T16:45:34.077Z,101054.44
2022-10-31T16:48:13.110Z,101073.16
2022-10-31T16:50:39.865Z,101046.16
2022-10-31T16:53:14.940Z,101066.19
2022-10-31T16:56:03.074Z,101062.53
2022-10-31T16:58:33.639Z,101071.44
2022-10-31T17:01:02.114Z,101072.31
2022-10-31T17:03:28.875Z,101015.56
2022-10-31T17:05:56.467Z,101072.63
2022-10-31T17:08:24.793Z,101055.78
2022-10-31T17:10:59.176Z,101080.03
2022-10-31T17:13:28.717Z,101059.75
2022-10-31T17:15:58.462Z,101079.72
2022-10-31T17:18:27.646Z,101067.50
2022-10-31T17:21:14.340Z,101080.59
2022-10-31T17:23:40.972Z,101100.72
2022-10-31T17:26:10.315Z,101092.44
2022-10-31T17:28:37.259Z,101061.53
2022-10-31T17:31:03.999Z,101086.22
2022-10-31T17:33:30.611Z,101094.84
2022-10-31T17:35:57.224Z,101084.56
2022-10-31T17:38:23.884Z,101044.16
2022-10-31T17:40:50.470Z,101077.56
2022-10-31T17:43:17.089Z,101067.09
2022-10-31T17:45:43.742Z,101079.63
2022-10-31T17:48:12.571Z,101078.31
2022-10-31T17:50:39.273Z,101015.06
2022-10-31T17:53:06.053Z,101068.63
2022-10-31T17:55:36.181Z,100978.53
2022-10-31T17:58:04.530Z,101058.03
2022-10-31T18:00:31.278Z,101068.75
2022-10-31T18:02:57.974Z,101064.22
2022-10-31T18:05:24.656Z,100991.59
2022-10-31T18:07:51.342Z,101070.41
2022-10-31T18:10:18.262Z,101094.78
2022-10-31T18:12:47.762Z,101052.50
2022-10-31T18:15:15.726Z,101054.22
2022-10-31T18:17:46.458Z,101094.03
2022-10-31T18:20:13.382Z,101085.50
2022-10-31T18:22:39.997Z,101074.53
2022-10-31T18:25:06.836Z,101065.50
2022-10-31T18:27:33.406Z,101069.41
2022-10-31T18:30:00.022Z,101108.81
2022-10-31T18:32:26.599Z,101088.50
2022-10-31T18:34:53.847Z,101107.09
2022-10-31T18:37:20.476Z,101075.72
2022-10-31T18:39:47.062Z,101077.25
2022-10-31T18:42:13.707Z,101094.56
2022-10-31T18:44:40.430Z,100993.75
2022-10-31T18:47:07.050Z,101104.19
2022-10-31T18:49:33.632Z,101094.84
2022-10-31T18:52:00.739Z,101058.16
2022-10-31T18:54:27.375Z,101090.91
2022-10-31T18:56:54.585Z,101077.69
2022-10-31T18:59:21.221Z,100984.88
2022-10-31T19:01:47.908Z,101054.59
2022-10-31T19:04:14.637Z,101090.91
2022-10-31T19:06:41.369Z,101056.03
2022-10-31T19:09:09.794Z,101033.06
2022-10-31T19:11:39.855Z,101083.41
2022-10-31T19:14:08.504Z,101074.31
2022-10-31T19:16:37.120Z,101066.34
2022-10-31T19:19:03.907Z,101094.56
2022-10-31T19:21:34.705Z,101074.97
2022-10-31T19:24:02.136Z,101093.22
2022-10-31T19:26:28.769Z,101087.91
2022-10-31T19:28:56.662Z,101063.59
2022-10-31T19:31:24.086Z,101049.88
2022-10-31T19:33:51.031Z,101084.75
2022-10-31T19:36:19.046Z,101067.09
2022-10-31T19:38:48.566Z,101097.16
2022-10-31T19:41:20.706Z,101094.94
2022-10-31T19:43:47.898Z,101088.50
2022-10-31T19:46:27.765Z,101099.75
2022-10-31T19:49:02.621Z,101089.72
2022-10-31T19:51:29.192Z,101086.38
2022-10-31T19:53:55.809Z,101079.78
2022-10-31T19:56:25.383Z,101105.75
2022-10-31T19:58:52.127Z,101099.84
2022-10-31T20:01:22.056Z,101101.84
2022-10-31T20:03:50.036Z,101065.56
2022-10-31T20:06:28.219Z,101089.00
2022-10-31T20:08:56.211Z,101095.28
2022-10-31T20:11:27.727Z,101099.81
2022-10-31T20:14:00.769Z,101107.38
2022-10-31T20:16:28.363Z,101080.59
2022-10-31T20:18:55.434Z,101089.78
2022-10-31T20:21:25.001Z,101110.66
2022-10-31T20:24:03.050Z,101095.31
2022-10-31T20:26:31.718Z,101110.16
2022-10-31T20:28:59.386Z,101090.41
2022-10-31T20:31:28.699Z,101082.66
2022-10-31T20:33:55.895Z,101101.75
2022-10-31T20:36:23.444Z,101104.84
2022-10-31T20:38:51.645Z,101065.81
2022-10-31T20:41:19.134Z,101064.38
2022-10-31T20:43:46.345Z,101098.38
2022-10-31T20:46:21.749Z,101107.81
2022-10-31T20:48:48.590Z,101055.06
2022-10-31T20:51:21.960Z,101097.06
2022-10-31T20:53:50.399Z,101111.28
2022-10-31T20:56:20.165Z,101105.88
2022-10-31T20:58:47.539Z,101112.88
2022-10-31T21:01:20.136Z,101107.84
2022-10-31T21:03:48.236Z,101118.75
2022-10-31T21:06:15.970Z,101117.66
2022-10-31T21:08:43.185Z,101109.13
2022-10-31T21:11:12.635Z,101117.06
2022-10-31T21:13:42.237Z,101113.50
2022-10-31T21:16:14.643Z,101091.41
2022-10-31T21:18:44.030Z,101096.97
2022-10-31T21:21:13.505Z,101079.22
2022-10-31T21:23:40.765Z,101008.97
2022-10-31T21:26:19.324Z,101112.31
2022-10-31T21:28:45.939Z,101104.31
2022-10-31T21:31:14.698Z,101079.56
2022-10-31T21:33:42.097Z,101052.34
2022-10-31T21:36:09.804Z,101063.59
2022-10-31T21:38:37.160Z,101067.25
2022-10-31T21:41:06.186Z,101091.31
2022-10-31T21:43:36.057Z,101097.19
2022-10-31T21:46:10.838Z,101058.84
2022-10-31T21:48:43.499Z,100993.84
2022-10-31T21:51:21.558Z,101059.44
2022-10-31T21:54:07.576Z,101081.00
2022-10-31T21:56:35.482Z,101085.41
2022-10-31T21:59:02.676Z,101076.88
2022-10-31T22:01:29.945Z,101087.41
2022-10-31T22:03:57.691Z,101066.03
2022-10-31T22:06:30.015Z,101077.47
2022-10-31T22:08:59.200Z,101076.19
2022-10-31T22:11:26.928Z,101072.50
2022-10-31T22:13:53.919Z,101102.16
2022-10-31T22:16:22.330Z,101092.47
2022-10-31T22:18:55.595Z,101080.84
2022-10-31T22:21:24.189Z,101102.81
2022-10-31T22:23:52.666Z,101059.31
2022-10-31T22:26:19.942Z,101090.44
2022-10-31T22:28:48.770Z,101093.81
2022-10-31T22:31:17.587Z,101086.50
2022-10-31T22:33:45.457Z,101083.91
2022-10-31T22:36:15.328Z,101077.56
2022-10-31T22:38:42.554Z,101089.78
2022-10-31T22:41:17.194Z,101073.91
2022-10-31T22:43:44.206Z,101079.34
2022-10-31T22:46:23.134Z,101067.09
2022-10-31T22:48:52.206Z,101087.66
2022-10-31T22:51:27.004Z,101077.56
2022-10-31T22:53:56.817Z,101085.06
2022-10-31T22:56:26.379Z,101081.72
2022-10-31T22:58:53.962Z,101055.38
2022-10-31T23:01:26.975Z,101083.94
2022-10-31T23:03:53.746Z,101048.44
2022-10-31T23:06:23.318Z,101083.91
2022-10-31T23:08:51.571Z,101085.09
2022-10-31T23:11:23.626Z,101074.78
2022-10-31T23:14:13.240Z,101075.38
2022-10-31T23:16:53.677Z,101082.84
2022-10-31T23:19:22.617Z,101074.75
2022-10-31T23:21:56.495Z,101075.75
2022-10-31T23:24:26.533Z,101045.34
2022-10-31T23:27:09.848Z,101051.09
2022-10-31T23:29:48.535Z,101063.88
2022-10-31T23:32:21.449Z,101038.50
2022-10-31T23:34:50.509Z,101057.91
2022-10-31T23:37:18.695Z,101032.25
2022-10-31T23:39:47.704Z,101053.84
2022-10-31T23:42:15.575Z,101014.53
2022-10-31T23:44:42.934Z,101050.78
2022-10-31T23:47:09.670Z,101042.75
2022-10-31T23:49:37.385Z,101021.44
2022-10-31T23:52:05.361Z,101031.00
2022-10-31T23:54:32.713Z,101051.78
2022-10-31T23:56:59.733Z,101048.28
2022-10-31T23:59:26.888Z,101016.69
